Time;durP1;ratioP1;P1;durP2;ratioP2;P2;SDS_P1;SDS_P2;PMS_P1;PMS_P2;Temp;Humidity;BMP_temperature;BMP_pressure;BME280_temperature;BME280_humidity;BME280_pressure;Samples;Min_cycle;Max_cycle;Signal;HPM_P1;HPM_P2
2021/09/09 00:00:44;;;;;;;0.63;0.35;;;;;;;20.04;52.91;101414.63;5055950;28;20033;-62
2021/09/09 00:03:09;;;;;;;1.13;0.32;;;;;;;20.05;52.83;101415.47;5055760;28;20412;-61
2021/09/09 00:05:35;;;;;;;0.40;0.40;;;;;;;20.05;52.60;101410.00;5054674;28;20025;-61
2021/09/09 00:08:01;;;;;;;0.55;0.38;;;;;;;20.01;53.32;101406.78;5055648;28;20031;-61
2021/09/09 00:10:27;;;;;;;1.50;0.50;;;;;;;20.06;52.51;101398.91;5055693;28;20078;-62
2021/09/09 00:12:52;;;;;;;1.00;0.30;;;;;;;20.06;52.70;101406.25;5055517;28;20025;-61
2021/09/09 00:15:18;;;;;;;0.10;0.10;;;;;;;20.02;53.04;101405.75;5054974;28;20029;-62
2021/09/09 00:17:43;;;;;;;0.30;0.30;;;;;;;20.00;53.17;101407.78;5055606;28;20070;-61
2021/09/09 00:20:10;;;;;;;0.65;0.52;;;;;;;20.00;53.10;101415.97;5055355;28;20465;-61
2021/09/09 00:22:36;;;;;;;0.30;0.30;;;;;;;20.04;52.67;101411.88;5055553;28;20013;-60
2021/09/09 00:25:02;;;;;;;0.40;0.40;;;;;;;19.99;52.94;101406.09;5055210;28;20100;-62
2021/09/09 00:27:27;;;;;;;0.88;0.35;;;;;;;19.99;52.44;101403.38;5055260;28;20033;-61
2021/09/09 00:29:52;;;;;;;0.98;0.30;;;;;;;19.98;52.68;101401.63;5055117;28;20029;-61
2021/09/09 00:32:18;;;;;;;0.63;0.30;;;;;;;19.91;53.32;101405.22;5055210;28;20400;-60
2021/09/09 00:34:43;;;;;;;1.73;0.30;;;;;;;19.98;52.62;101400.78;5055344;28;20385;-61
2021/09/09 00:37:08;;;;;;;0.77;0.40;;;;;;;19.96;53.15;101402.81;5055102;28;20028;-60
2021/09/09 00:39:34;;;;;;;0.45;0.30;;;;;;;19.93;52.84;101401.28;5055184;28;20384;-61
2021/09/09 00:41:59;;;;;;;0.68;0.20;;;;;;;19.88;53.29;101400.09;5070954;28;20051;-61
2021/09/09 00:44:27;;;;;;;1.40;0.50;;;;;;;19.92;53.23;101396.84;5074901;28;20366;-61
2021/09/09 00:47:03;;;;;;;0.63;0.30;;;;;;;19.94;53.02;101404.88;5074966;28;20016;-61
2021/09/09 00:49:30;;;;;;;0.43;0.40;;;;;;;19.97;52.73;101399.91;5062145;28;20029;-60
2021/09/09 00:51:55;;;;;;;1.00;0.55;;;;;;;19.92;52.50;101399.56;5054683;28;20519;-62
2021/09/09 00:54:21;;;;;;;0.65;0.50;;;;;;;19.93;53.49;101397.69;5054864;28;20028;-61
2021/09/09 00:56:48;;;;;;;0.52;0.40;;;;;;;19.89;52.95;101391.72;5054669;28;20108;-61
2021/09/09 00:59:14;;;;;;;0.50;0.38;;;;;;;19.91;52.63;101397.88;5054510;28;20044;-61
2021/09/09 01:01:41;;;;;;;1.13;0.70;;;;;;;19.84;53.17;101399.59;5054842;28;20021;-62
2021/09/09 01:04:06;;;;;;;0.93;0.30;;;;;;;19.90;52.72;101398.03;5054508;28;20017;-60
2021/09/09 01:06:32;;;;;;;0.70;0.30;;;;;;;19.85;53.08;101406.75;5054579;28;20438;-61
2021/09/09 01:08:58;;;;;;;0.65;0.30;;;;;;;19.83;52.79;101400.59;5054464;28;20032;-61
2021/09/09 01:11:23;;;;;;;0.40;0.40;;;;;;;19.91;52.67;101397.03;5054378;28;20039;-61
2021/09/09 01:13:52;;;;;;;0.93;0.63;;;;;;;19.86;53.12;101397.53;5054394;28;20021;-60
2021/09/09 01:16:19;;;;;;;1.23;0.50;;;;;;;19.84;52.91;101405.03;5054590;28;20146;-62
2021/09/09 01:18:44;;;;;;;0.80;0.50;;;;;;;19.82;53.06;101405.22;5054190;28;20025;-61
2021/09/09 01:21:10;;;;;;;0.55;0.43;;;;;;;19.83;52.84;101398.72;5054421;28;20028;-61
2021/09/09 01:23:36;;;;;;;0.75;0.32;;;;;;;19.79;53.15;101405.53;5036203;28;20072;-61
2021/09/09 01:26:03;;;;;;;0.63;0.32;;;;;;;19.83;53.24;101393.28;5053931;28;20029;-61
2021/09/09 01:28:29;;;;;;;0.40;0.40;;;;;;;19.84;52.83;101394.13;5053346;28;20025;-62
2021/09/09 01:30:54;;;;;;;1.20;0.50;;;;;;;19.80;52.97;101392.72;5054068;28;20354;-62
2021/09/09 01:33:19;;;;;;;1.00;0.35;;;;;;;19.80;53.16;101398.19;5054004;28;20025;-61
2021/09/09 01:35:45;;;;;;;1.02;0.40;;;;;;;19.84;52.58;101394.13;5053751;28;20056;-62
2021/09/09 01:38:21;;;;;;;0.45;0.40;;;;;;;19.80;53.15;101392.72;5054005;28;20440;-61
2021/09/09 01:40:47;;;;;;;0.70;0.30;;;;;;;19.79;53.29;101380.09;5059771;28;20103;-61
2021/09/09 01:43:12;;;;;;;0.77;0.25;;;;;;;19.82;52.67;101377.06;5073670;28;20055;-60
2021/09/09 01:45:37;;;;;;;0.52;0.40;;;;;;;19.80;52.75;101381.81;5073428;28;20044;-61
2021/09/09 01:48:03;;;;;;;0.88;0.68;;;;;;;19.80;53.28;101376.34;5073636;28;20028;-61
2021/09/09 01:50:29;;;;;;;0.93;0.30;;;;;;;19.79;53.24;101374.66;5073641;28;20074;-61
2021/09/09 01:52:54;;;;;;;1.48;0.60;;;;;;;19.79;53.31;101375.50;5073563;28;20033;-60
2021/09/09 01:55:19;;;;;;;0.95;0.40;;;;;;;19.76;52.93;101375.84;5073775;28;20020;-61
2021/09/09 01:57:45;;;;;;;0.60;0.22;;;;;;;19.81;53.26;101378.06;5073497;28;20495;-61
2021/09/09 02:00:19;;;;;;;0.45;0.40;;;;;;;19.80;52.39;101381.81;5090615;27;20731;-61
2021/09/09 02:02:45;;;;;;;0.95;0.40;;;;;;;19.76;52.98;101375.00;5090622;28;20028;-62
2021/09/09 02:05:12;;;;;;;0.93;0.82;;;;;;;19.76;53.19;101372.25;5090136;28;20017;-61
2021/09/09 02:07:38;;;;;;;0.60;0.60;;;;;;;19.76;52.67;101369.53;5090545;28;20062;-62
2021/09/09 02:10:04;;;;;;;1.15;0.40;;;;;;;19.75;52.59;101373.28;5090488;28;20044;-61
2021/09/09 02:12:29;;;;;;;0.28;0.25;;;;;;;19.74;52.83;101377.91;5090588;28;20039;-61
2021/09/09 02:14:55;;;;;;;0.38;0.30;;;;;;;19.78;53.43;101370.22;5090386;28;20024;-61
2021/09/09 02:17:20;;;;;;;0.82;0.20;;;;;;;19.74;53.03;101366.13;5090524;28;20020;-62
2021/09/09 02:19:46;;;;;;;1.40;0.63;;;;;;;19.75;53.09;101363.22;5088995;28;20607;-62
2021/09/09 02:22:11;;;;;;;0.40;0.40;;;;;;;19.70;52.56;101371.06;5090272;28;20036;-61
2021/09/09 02:24:36;;;;;;;0.45;0.20;;;;;;;19.71;52.69;101364.59;5090241;28;20068;-61
2021/09/09 02:27:02;;;;;;;1.08;0.40;;;;;;;19.68;52.68;101366.81;5090014;28;20122;-62
2021/09/09 02:29:27;;;;;;;0.47;0.30;;;;;;;19.66;52.92;101361.53;5090275;28;20029;-61
2021/09/09 02:31:53;;;;;;;0.80;0.60;;;;;;;19.72;52.61;101363.56;5090114;28;20577;-61
2021/09/09 02:34:18;;;;;;;0.52;0.43;;;;;;;19.68;53.44;101362.22;5089886;28;20514;-61
2021/09/09 02:36:43;;;;;;;0.60;0.17;;;;;;;19.71;53.06;101364.59;5090041;28;20577;-61
2021/09/09 02:39:09;;;;;;;0.40;0.38;;;;;;;19.71;53.29;101366.47;5089876;28;20022;-61
2021/09/09 02:41:34;;;;;;;0.35;0.30;;;;;;;19.66;52.85;101363.41;5089718;28;20033;-61
2021/09/09 02:43:59;;;;;;;0.10;0.10;;;;;;;19.63;52.91;101363.72;5089940;28;20020;-61
2021/09/09 02:46:25;;;;;;;0.30;0.30;;;;;;;19.66;53.31;101364.25;5089914;28;20024;-62
2021/09/09 02:48:51;;;;;;;0.45;0.30;;;;;;;19.65;52.86;101367.13;5089493;28;20020;-62
2021/09/09 02:51:17;;;;;;;1.38;0.40;;;;;;;19.67;52.77;101365.09;5089886;28;20035;-61
2021/09/09 02:53:42;;;;;;;0.30;0.20;;;;;;;19.64;52.94;101359.97;5089317;28;20036;-61
2021/09/09 02:56:08;;;;;;;0.20;0.20;;;;;;;19.66;52.92;101357.94;5089324;28;20020;-62
2021/09/09 02:58:33;;;;;;;0.20;0.20;;;;;;;19.77;52.86;101354.88;5089418;28;20036;-61
2021/09/09 03:00:59;;;;;;;0.52;0.30;;;;;;;19.65;52.79;101356.22;5089489;28;20103;-61
2021/09/09 03:03:24;;;;;;;0.82;0.30;;;;;;;19.72;52.52;101360.00;5089711;28;20020;-61
2021/09/09 03:05:49;;;;;;;0.88;0.45;;;;;;;19.65;53.06;101353.47;5089142;28;20027;-61
2021/09/09 03:08:15;;;;;;;1.17;0.57;;;;;;;19.60;53.43;101364.06;5089388;28;20016;-61
2021/09/09 03:10:40;;;;;;;0.47;0.30;;;;;;;19.58;53.37;101356.03;5081452;28;20029;-60
2021/09/09 03:13:05;;;;;;;0.43;0.28;;;;;;;19.64;52.64;101322.63;5075919;28;20024;-61
2021/09/09 03:15:31;;;;;;;0.20;0.20;;;;;;;19.68;52.43;101328.63;5075713;28;20052;-62
2021/09/09 03:17:56;;;;;;;2.95;0.77;;;;;;;19.66;52.85;101326.06;5075521;28;20470;-61
2021/09/09 03:20:22;;;;;;;0.80;0.38;;;;;;;19.62;52.99;101329.28;5075884;28;20036;-61
2021/09/09 03:22:47;;;;;;;0.45;0.20;;;;;;;19.66;52.26;101336.13;5075709;28;20031;-62
2021/09/09 03:25:12;;;;;;;0.20;0.20;;;;;;;19.63;52.75;101328.25;5075474;28;20020;-61
2021/09/09 03:27:38;;;;;;;1.13;0.40;;;;;;;19.61;52.64;101327.56;5075581;28;20020;-61
2021/09/09 03:30:04;;;;;;;0.52;0.52;;;;;;;19.65;52.35;101328.94;5057039;28;20065;-61
2021/09/09 03:32:30;;;;;;;0.45;0.32;;;;;;;19.64;52.32;101321.78;5075604;28;20035;-60
2021/09/09 03:34:55;;;;;;;0.30;0.30;;;;;;;19.68;52.41;101328.63;5075473;28;20025;-61
2021/09/09 03:37:21;;;;;;;0.20;0.20;;;;;;;19.61;52.77;101322.97;5075505;28;20028;-61
2021/09/09 03:39:46;;;;;;;0.82;0.43;;;;;;;19.69;52.42;101319.41;5075238;28;20013;-61
2021/09/09 03:42:11;;;;;;;0.35;0.20;;;;;;;19.66;52.42;101314.31;5075272;28;20066;-60
2021/09/09 03:44:37;;;;;;;0.60;0.32;;;;;;;19.63;52.11;101317.34;5075382;28;20020;-61
2021/09/09 03:47:02;;;;;;;0.25;0.20;;;;;;;19.61;52.51;101312.06;5075081;28;20032;-60
2021/09/09 03:49:28;;;;;;;0.38;0.38;;;;;;;19.63;52.07;101325.53;5075006;28;20021;-62
2021/09/09 03:51:53;;;;;;;1.13;0.32;;;;;;;19.61;52.38;101316.66;5075197;28;20028;-61
2021/09/09 03:54:19;;;;;;;0.10;0.10;;;;;;;19.56;52.11;101314.44;5075192;28;20037;-61
2021/09/09 03:56:45;;;;;;;0.38;0.20;;;;;;;19.63;51.63;101304.56;5074920;28;20025;-61
2021/09/09 03:59:11;;;;;;;0.38;0.20;;;;;;;19.62;51.82;101302.00;5074630;28;20044;-61
2021/09/09 04:01:36;;;;;;;0.30;0.10;;;;;;;19.69;51.73;101298.44;5074931;28;20035;-60
2021/09/09 04:04:01;;;;;;;0.20;0.20;;;;;;;20.16;51.02;101302.38;5074543;28;20020;-61
2021/09/09 04:06:27;;;;;;;0.38;0.20;;;;;;;20.40;50.29;101296.84;5075040;28;20024;-61
2021/09/09 04:08:52;;;;;;;0.30;0.20;;;;;;;20.66;49.60;101286.59;5074785;28;20025;-61
2021/09/09 04:11:17;;;;;;;0.00;0.00;;;;;;;20.69;49.13;101286.22;5074765;28;20036;-60
2021/09/09 04:13:43;;;;;;;0.35;0.30;;;;;;;20.74;49.12;101277.50;5074831;28;20078;-61
2021/09/09 04:16:08;;;;;;;1.55;0.30;;;;;;;21.02;48.86;101275.16;5074448;28;20020;-61
2021/09/09 04:18:33;;;;;;;0.43;0.10;;;;;;;21.13;48.91;101272.00;5074519;28;20048;-61
2021/09/09 04:20:59;;;;;;;0.75;0.30;;;;;;;21.32;48.22;101271.56;5074280;28;20442;-60
2021/09/09 04:23:24;;;;;;;0.47;0.05;;;;;;;21.28;48.89;101270.25;5073650;28;20080;-61
2021/09/09 04:25:49;;;;;;;0.55;0.38;;;;;;;21.36;48.64;101271.25;5074511;28;20474;-61
2021/09/09 04:28:14;;;;;;;0.17;0.13;;;;;;;21.44;48.16;101274.75;5074088;28;20016;-61
2021/09/09 04:30:40;;;;;;;0.30;0.20;;;;;;;21.33;48.69;101261.50;5074311;28;20031;-60
2021/09/09 04:33:05;;;;;;;0.38;0.13;;;;;;;21.40;48.34;101257.00;5074224;28;20048;-62
2021/09/09 04:35:30;;;;;;;0.20;0.10;;;;;;;21.58;48.04;101260.31;5074433;28;20481;-61
2021/09/09 04:37:56;;;;;;;0.60;0.20;;;;;;;21.48;48.80;101250.63;5074085;28;20025;-61
2021/09/09 04:40:21;;;;;;;0.60;0.30;;;;;;;21.57;48.36;101257.75;5074384;28;20367;-61
2021/09/09 04:42:46;;;;;;;0.55;0.40;;;;;;;21.66;48.36;101256.63;5074240;28;20378;-62
2021/09/09 04:45:12;;;;;;;1.20;0.15;;;;;;;21.68;48.35;101264.69;5074055;28;20370;-61
2021/09/09 04:47:37;;;;;;;0.30;0.10;;;;;;;21.64;48.76;101247.75;5074048;28;20027;-61
2021/09/09 04:50:04;;;;;;;0.25;0.10;;;;;;;21.87;48.24;101243.13;5073871;28;20020;-61
2021/09/09 04:52:29;;;;;;;0.28;0.10;;;;;;;21.90;48.39;101240.03;5074033;28;20032;-61
2021/09/09 04:54:55;;;;;;;0.25;0.10;;;;;;;21.66;48.99;101245.69;5055762;28;20022;-61
2021/09/09 04:57:20;;;;;;;0.13;0.10;;;;;;;21.72;48.76;101244.13;5073665;28;20025;-61
2021/09/09 04:59:45;;;;;;;0.20;0.20;;;;;;;21.79;48.13;101248.66;5073535;28;20094;-60
2021/09/09 05:02:12;;;;;;;0.20;0.20;;;;;;;21.89;48.35;101227.38;5073618;28;20343;-61
2021/09/09 05:04:40;;;;;;;0.52;0.30;;;;;;;22.00;48.67;101234.25;5073900;28;20043;-61
2021/09/09 05:07:05;;;;;;;0.35;0.20;;;;;;;21.77;48.80;101226.09;5073401;28;20082;-61
2021/09/09 05:09:31;;;;;;;0.52;0.30;;;;;;;21.87;48.57;101232.19;5073800;28;20016;-62
2021/09/09 05:11:57;;;;;;;0.52;0.10;;;;;;;21.85;49.23;101227.94;5073494;28;20063;-62
2021/09/09 05:14:22;;;;;;;0.20;0.20;;;;;;;21.95;48.36;101222.19;5073630;28;20036;-61
2021/09/09 05:16:47;;;;;;;0.10;0.10;;;;;;;21.92;49.22;101224.25;5068607;28;20348;-60
2021/09/09 05:19:13;;;;;;;0.10;0.10;;;;;;;21.96;48.85;101223.88;5053081;28;20029;-62
2021/09/09 05:21:38;;;;;;;0.40;0.10;;;;;;;22.12;48.70;101223.75;5053615;28;20033;-61
2021/09/09 05:24:04;;;;;;;0.20;0.20;;;;;;;22.15;48.55;101228.84;5053142;28;20057;-62
2021/09/09 05:26:30;;;;;;;1.13;0.20;;;;;;;22.06;48.06;101219.03;5053188;28;20037;-61
2021/09/09 05:28:55;;;;;;;0.32;0.10;;;;;;;22.17;48.84;101219.44;5053334;28;20017;-61
2021/09/09 05:31:21;;;;;;;0.10;0.00;;;;;;;22.13;48.89;101219.97;5053337;28;20029;-61
2021/09/09 05:33:46;;;;;;;0.47;0.10;;;;;;;22.04;48.43;101210.97;5053010;28;20032;-60
2021/09/09 05:36:11;;;;;;;1.17;0.10;;;;;;;22.20;48.49;101210.00;5053195;28;20032;-62
2021/09/09 05:38:37;;;;;;;0.22;0.10;;;;;;;22.17;48.33;101211.22;5053311;28;20452;-63
2021/09/09 05:41:02;;;;;;;0.35;0.00;;;;;;;22.24;48.28;101210.47;5053096;28;20487;-62
2021/09/09 05:43:27;;;;;;;0.85;0.10;;;;;;;22.29;48.78;101217.06;5053299;28;20081;-61
2021/09/09 05:45:53;;;;;;;0.20;0.10;;;;;;;22.21;48.12;101215.28;5052816;28;20029;-62
2021/09/09 05:48:19;;;;;;;0.10;0.00;;;;;;;22.28;48.46;101212.63;5053167;28;20028;-62
2021/09/09 05:50:44;;;;;;;0.55;0.10;;;;;;;22.27;48.28;101210.94;5052937;28;20017;-62
2021/09/09 05:53:09;;;;;;;0.35;0.20;;;;;;;22.19;48.90;101220.09;5052886;28;20564;-61
2021/09/09 05:55:35;;;;;;;0.10;0.00;;;;;;;22.18;48.77;101206.59;5053025;28;20414;-63
2021/09/09 05:58:00;;;;;;;0.65;0.10;;;;;;;22.34;48.31;101211.88;5052640;28;20056;-62
2021/09/09 06:00:25;;;;;;;0.17;0.00;;;;;;;22.27;48.92;101205.44;5053087;28;20024;-62
2021/09/09 06:02:51;;;;;;;0.10;0.10;;;;;;;22.27;48.61;101199.97;5052648;28;20021;-61
2021/09/09 06:05:18;;;;;;;0.30;0.00;;;;;;;22.39;48.50;101214.91;5064373;28;20030;-62
2021/09/09 06:07:44;;;;;;;0.05;0.05;;;;;;;22.36;48.74;101208.97;5072608;28;20066;-62
2021/09/09 06:10:10;;;;;;;0.25;0.20;;;;;;;22.27;48.51;101216.41;5072734;28;20027;-62
2021/09/09 06:12:35;;;;;;;0.93;0.20;;;;;;;22.47;48.51;101214.78;5072182;28;20021;-61
2021/09/09 06:15:03;;;;;;;0.20;0.00;;;;;;;22.30;48.59;101232.44;5063638;28;20353;-62
2021/09/09 06:17:28;;;;;;;1.50;0.20;;;;;;;22.35;48.62;101216.31;5057545;28;20079;-62
2021/09/09 06:19:53;;;;;;;1.08;0.20;;;;;;;22.42;48.05;101216.41;5052627;28;20519;-61
2021/09/09 06:22:19;;;;;;;0.10;0.10;;;;;;;22.37;49.00;101219.72;5060968;28;20570;-62
2021/09/09 06:24:44;;;;;;;0.15;0.00;;;;;;;22.35;48.83;101218.22;5060508;28;20023;-62
2021/09/09 06:27:09;;;;;;;0.20;0.10;;;;;;;22.40;49.04;101213.00;5075441;28;20876;-61
2021/09/09 06:29:35;;;;;;;0.40;0.10;;;;;;;22.55;48.75;101211.13;5071303;28;20021;-61
2021/09/09 06:32:00;;;;;;;0.88;0.10;;;;;;;22.48;48.46;101213.75;5067104;28;20029;-61
2021/09/09 06:34:25;;;;;;;0.47;0.10;;;;;;;22.54;48.61;101209.41;5050563;28;20040;-61
2021/09/09 06:36:51;;;;;;;0.70;0.20;;;;;;;22.61;48.66;101201.28;5049588;28;20542;-61
2021/09/09 06:39:19;;;;;;;1.00;0.10;;;;;;;22.48;48.41;101201.94;5063893;28;20024;-61
2021/09/09 06:41:44;;;;;;;0.77;0.20;;;;;;;22.38;48.48;101207.72;5072316;28;20029;-62
2021/09/09 06:44:14;;;;;;;0.10;0.00;;;;;;;22.43;49.12;101210.75;5066156;28;20482;-61
2021/09/09 06:46:41;;;;;;;0.20;0.10;;;;;;;22.50;48.70;101210.81;5063834;28;20045;-61
2021/09/09 06:49:07;;;;;;;0.65;0.20;;;;;;;22.34;49.34;101209.16;5068498;28;20104;-62
2021/09/09 06:51:33;;;;;;;0.20;0.00;;;;;;;22.48;49.11;101208.28;5069498;28;20147;-62
2021/09/09 06:53:59;;;;;;;0.40;0.17;;;;;;;22.63;48.81;101199.19;5074245;28;20052;-61
2021/09/09 06:56:25;;;;;;;0.25;0.15;;;;;;;22.54;48.70;101205.84;5073492;28;20477;-61
2021/09/09 06:58:51;;;;;;;0.10;0.10;;;;;;;22.49;48.74;101206.38;5060927;28;20495;-62
2021/09/09 07:01:16;;;;;;;0.22;0.00;;;;;;;22.55;49.08;101229.44;5064683;28;20029;-61
2021/09/09 07:03:42;;;;;;;0.15;0.10;;;;;;;22.60;48.89;101216.03;5065857;28;20078;-62
2021/09/09 07:06:08;;;;;;;0.30;0.03;;;;;;;22.35;49.25;101224.53;5061101;28;20037;-61
2021/09/09 07:08:34;;;;;;;0.00;0.00;;;;;;;22.54;48.97;101212.16;5063895;28;20029;-62
2021/09/09 07:10:59;;;;;;;0.20;0.10;;;;;;;22.47;49.17;101217.53;5062286;28;20028;-61
2021/09/09 07:13:28;;;;;;;0.50;0.17;;;;;;;22.48;48.65;101218.38;5046015;28;20067;-62
2021/09/09 07:15:55;;;;;;;0.10;0.10;;;;;;;22.51;49.39;101210.66;5074824;28;20501;-60
2021/09/09 07:18:21;;;;;;;0.95;0.13;;;;;;;22.51;49.68;101207.91;5074039;28;20050;-62
2021/09/09 07:20:46;;;;;;;0.45;0.10;;;;;;;22.62;48.70;101202.97;5068307;28;20066;-63
2021/09/09 07:23:11;;;;;;;0.10;0.10;;;;;;;22.45;49.46;101200.44;5065586;28;20040;-62
2021/09/09 07:25:37;;;;;;;0.10;0.00;;;;;;;22.55;48.86;101193.81;5065312;28;20523;-62
2021/09/09 07:28:03;;;;;;;0.63;0.10;;;;;;;22.44;48.68;101201.47;5068389;28;20029;-63
2021/09/09 07:30:28;;;;;;;0.22;0.10;;;;;;;22.22;48.72;101202.44;5075411;28;20052;-62
2021/09/09 07:32:53;;;;;;;0.25;0.10;;;;;;;22.23;48.35;101201.38;5073538;28;20037;-62
2021/09/09 07:35:19;;;;;;;0.28;0.10;;;;;;;22.05;48.16;101201.75;5060163;28;20033;-61
2021/09/09 07:37:47;;;;;;;0.25;0.10;;;;;;;21.75;48.66;101194.50;5074805;28;20032;-62
2021/09/09 07:40:12;;;;;;;1.63;0.40;;;;;;;22.15;47.27;101201.47;5074539;28;20032;-63
2021/09/09 07:42:38;;;;;;;0.22;0.10;;;;;;;21.90;47.54;101192.63;5058045;28;20079;-62
2021/09/09 07:45:05;;;;;;;0.10;0.10;;;;;;;22.11;47.81;101192.78;5060014;28;20028;-63
2021/09/09 07:47:31;;;;;;;0.03;0.00;;;;;;;21.97;47.53;101198.22;5064939;28;20496;-62
2021/09/09 07:49:57;;;;;;;0.10;0.10;;;;;;;22.20;47.38;101199.03;5069099;28;20029;-62
2021/09/09 07:52:23;;;;;;;0.68;0.17;;;;;;;22.01;47.49;101194.09;5056844;28;20353;-62
2021/09/09 07:54:48;;;;;;;0.20;0.20;;;;;;;22.07;47.50;101190.63;5064849;28;20459;-63
2021/09/09 07:57:14;;;;;;;0.17;0.17;;;;;;;22.08;47.88;101181.38;5068673;28;20040;-62
2021/09/09 07:59:39;;;;;;;0.10;0.10;;;;;;;22.12;47.72;101185.41;5062859;28;20041;-62
2021/09/09 08:02:05;;;;;;;0.70;0.10;;;;;;;22.06;47.38;101183.44;5075037;28;20378;-63
2021/09/09 08:04:30;;;;;;;0.15;0.10;;;;;;;22.10;47.70;101182.03;5090153;28;20055;-63
2021/09/09 08:06:55;;;;;;;0.20;0.10;;;;;;;22.06;48.43;101186.19;5074736;28;20020;-62
2021/09/09 08:09:21;;;;;;;0.25;0.10;;;;;;;22.13;47.41;101192.59;5082016;28;20052;-62
2021/09/09 08:11:46;;;;;;;0.10;0.10;;;;;;;22.07;47.76;101187.88;5093629;28;20466;-63
2021/09/09 08:14:11;;;;;;;0.47;0.10;;;;;;;22.06;48.10;101187.03;5077965;28;20360;-63
2021/09/09 08:16:37;;;;;;;0.10;0.10;;;;;;;22.27;47.80;101188.16;5074703;28;20378;-62
2021/09/09 08:19:02;;;;;;;0.10;0.10;;;;;;;22.23;48.05;101178.63;5074233;28;20078;-63
2021/09/09 08:21:29;;;;;;;0.25;0.00;;;;;;;22.05;47.94;101184.47;5074746;28;20024;-62
2021/09/09 08:23:54;;;;;;;0.17;0.10;;;;;;;22.04;47.67;101180.00;5074429;28;20056;-62
2021/09/09 08:26:20;;;;;;;0.82;0.30;;;;;;;22.25;47.58;101182.03;5074938;28;20103;-62
2021/09/09 08:28:45;;;;;;;0.08;0.00;;;;;;;22.19;47.20;101180.91;5074451;28;20044;-62
2021/09/09 08:31:11;;;;;;;1.00;0.20;;;;;;;22.08;47.19;101173.16;5076580;28;20050;-62
2021/09/09 08:33:38;;;;;;;1.27;0.25;;;;;;;22.20;47.79;101182.59;5083319;28;20024;-62
2021/09/09 08:36:05;;;;;;;0.20;0.00;;;;;;;22.20;47.37;101179.88;5094432;28;20024;-62
2021/09/09 08:38:30;;;;;;;0.85;0.22;;;;;;;22.01;47.42;101172.19;5080623;28;20467;-63
2021/09/09 08:40:56;;;;;;;0.30;0.10;;;;;;;22.07;47.78;101171.44;5094063;28;20079;-63
2021/09/09 08:43:21;;;;;;;0.82;0.08;;;;;;;21.99;48.43;101164.13;5094574;28;20027;-62
2021/09/09 08:45:52;;;;;;;0.10;0.03;;;;;;;22.08;47.65;101167.66;5094448;28;20024;-63
2021/09/09 08:48:18;;;;;;;0.20;0.15;;;;;;;22.17;47.00;101167.41;5094405;28;20030;-62
2021/09/09 08:50:43;;;;;;;0.40;0.20;;;;;;;22.01;47.59;101167.56;5076857;28;20066;-62
2021/09/09 08:53:09;;;;;;;0.55;0.22;;;;;;;22.13;47.93;101166.06;5066295;28;20032;-62
2021/09/09 08:55:35;;;;;;;1.20;0.20;;;;;;;22.10;47.83;101173.81;5054035;28;20031;-62
2021/09/09 08:58:02;;;;;;;0.28;0.10;;;;;;;22.14;47.33;101173.22;5053706;28;20742;-62
2021/09/09 09:00:27;;;;;;;0.00;0.00;;;;;;;22.20;47.21;101172.50;5038328;28;20388;-62
2021/09/09 09:02:55;;;;;;;0.20;0.10;;;;;;;22.16;47.42;101164.81;5053645;28;20033;-62
2021/09/09 09:05:21;;;;;;;0.65;0.10;;;;;;;22.39;47.16;101151.91;5063046;28;20024;-63
2021/09/09 09:07:59;;;;;;;0.10;0.10;;;;;;;22.10;48.16;101166.44;5056885;28;20066;-63
2021/09/09 09:10:24;;;;;;;0.30;0.20;;;;;;;22.17;47.68;101161.06;5057891;28;20016;-61
2021/09/09 09:12:49;;;;;;;1.27;0.08;;;;;;;22.04;47.45;101169.06;5073729;28;20111;-61
2021/09/09 09:15:20;;;;;;;0.10;0.10;;;;;;;22.13;47.75;101154.25;5073301;28;20036;-63
2021/09/09 09:18:02;;;;;;;0.40;0.20;;;;;;;22.38;47.07;101152.94;5073584;28;20020;-62
2021/09/09 09:20:51;;;;;;;0.35;0.10;;;;;;;22.18;47.85;101165.50;5049112;28;20379;-62
2021/09/09 09:23:21;;;;;;;0.10;0.10;;;;;;;22.08;47.43;101156.72;5063830;28;20031;-62
2021/09/09 09:25:51;;;;;;;0.10;0.10;;;;;;;21.99;47.79;101164.13;5057965;28;20590;-62
2021/09/09 09:28:37;;;;;;;0.30;0.10;;;;;;;22.18;47.48;101149.09;5060139;28;20028;-64
2021/09/09 09:31:04;;;;;;;0.10;0.10;;;;;;;22.13;47.67;101146.03;5057692;28;20114;-62
2021/09/09 09:33:35;;;;;;;0.50;0.28;;;;;;;22.08;47.50;101156.72;5069742;28;20043;-62
2021/09/09 09:36:15;;;;;;;0.20;0.10;;;;;;;22.33;47.46;101147.16;5057414;28;20035;-61
2021/09/09 09:38:41;;;;;;;0.10;0.05;;;;;;;22.20;47.67;101155.22;5040741;28;20024;-65
2021/09/09 09:41:07;;;;;;;0.60;0.15;;;;;;;22.13;47.88;101146.03;5058560;28;20067;-62
2021/09/09 09:43:33;;;;;;;0.20;0.20;;;;;;;22.12;48.01;101152.56;5056801;28;20072;-62
2021/09/09 09:45:59;;;;;;;0.30;0.10;;;;;;;22.03;48.33;101142.72;5062216;28;20043;-63
2021/09/09 09:48:25;;;;;;;0.30;0.20;;;;;;;21.98;48.71;101150.63;5064229;28;20024;-63
2021/09/09 09:50:51;;;;;;;1.05;0.40;;;;;;;21.89;48.86;101153.47;5060653;28;20031;-62
2021/09/09 09:53:18;;;;;;;0.47;0.10;;;;;;;22.07;48.41;101141.34;5066533;28;20027;-62
2021/09/09 09:55:44;;;;;;;0.17;0.10;;;;;;;22.04;48.26;101150.75;5069797;28;20021;-62
2021/09/09 09:58:10;;;;;;;0.75;0.20;;;;;;;22.09;49.12;101147.47;5057197;28;20059;-60
2021/09/09 10:00:36;;;;;;;0.17;0.10;;;;;;;21.95;49.04;101148.28;5062418;28;20034;-62
2021/09/09 10:03:01;;;;;;;0.50;0.05;;;;;;;22.10;48.22;101143.69;5065360;28;20052;-62
2021/09/09 10:05:28;;;;;;;0.22;0.10;;;;;;;22.06;48.93;101145.13;5072651;28;20032;-62
2021/09/09 10:07:54;;;;;;;0.43;0.10;;;;;;;22.02;48.82;101141.03;5073024;28;20095;-63
2021/09/09 10:10:19;;;;;;;0.10;0.00;;;;;;;22.02;49.24;101135.56;5072983;28;20108;-62
2021/09/09 10:12:48;;;;;;;0.10;0.00;;;;;;;22.02;49.10;101130.06;5072903;28;20020;-62
2021/09/09 10:15:14;;;;;;;0.10;0.00;;;;;;;22.01;49.54;101139.31;5072944;28;20470;-62
2021/09/09 10:17:41;;;;;;;0.10;0.03;;;;;;;22.14;48.91;101131.31;5073027;28;20070;-62
2021/09/09 10:20:29;;;;;;;0.57;0.10;;;;;;;22.04;48.94;101133.47;5073375;28;20374;-63
2021/09/09 10:23:02;;;;;;;0.13;0.08;;;;;;;21.93;49.24;101132.88;5076855;28;20077;-62
2021/09/09 10:25:45;;;;;;;0.65;0.10;;;;;;;22.18;49.36;101138.13;5076862;28;20020;-62
2021/09/09 10:28:42;;;;;;;0.22;0.10;;;;;;;22.06;49.26;101128.69;5077093;28;20039;-63
2021/09/09 10:31:19;;;;;;;0.63;0.20;;;;;;;22.09;49.46;101139.25;5076573;28;20104;-63
2021/09/09 10:33:47;;;;;;;0.38;0.10;;;;;;;22.10;49.47;101128.09;5076809;28;20411;-62
2021/09/09 10:36:44;;;;;;;0.15;0.15;;;;;;;21.93;49.25;101137.50;5076687;28;20059;-62
2021/09/09 10:39:18;;;;;;;0.00;0.00;;;;;;;22.18;48.99;101129.91;5076608;28;20074;-62
2021/09/09 10:41:45;;;;;;;0.43;0.10;;;;;;;22.08;49.12;101132.06;5076586;28;20518;-62
2021/09/09 10:44:11;;;;;;;0.15;0.10;;;;;;;22.19;49.68;101126.13;5076394;28;20024;-63
2021/09/09 10:46:39;;;;;;;2.42;0.20;;;;;;;22.16;49.10;101121.00;5076505;28;20142;-63
2021/09/09 10:49:18;;;;;;;0.98;0.22;;;;;;;21.93;49.24;101132.03;5076346;28;20043;-62
2021/09/09 10:52:07;;;;;;;0.10;0.10;;;;;;;22.11;49.06;101118.84;5075392;28;20033;-62
2021/09/09 10:54:53;;;;;;;0.20;0.10;;;;;;;22.24;48.51;101123.66;5076484;28;20036;-62
2021/09/09 10:57:18;;;;;;;0.00;0.00;;;;;;;22.09;49.69;101120.09;5075898;28;20401;-62
2021/09/09 10:59:48;;;;;;;0.17;0.10;;;;;;;22.15;49.16;101119.31;5076099;28;20513;-61
2021/09/09 11:02:18;;;;;;;1.08;0.10;;;;;;;22.15;48.76;101119.31;5075775;28;20028;-62
2021/09/09 11:04:44;;;;;;;1.17;0.10;;;;;;;22.10;49.21;101122.63;5076216;28;20031;-62
2021/09/09 11:07:26;;;;;;;0.50;0.22;;;;;;;22.08;49.67;101123.88;5075995;28;20028;-61
2021/09/09 11:10:04;;;;;;;0.98;0.13;;;;;;;22.06;49.54;101126.78;5076113;28;20464;-62
2021/09/09 11:12:34;;;;;;;1.30;0.10;;;;;;;22.11;49.62;101128.97;5076109;28;20620;-62
2021/09/09 11:15:05;;;;;;;0.15;0.10;;;;;;;22.18;49.27;101116.22;5065465;28;20292;-62
2021/09/09 11:17:30;;;;;;;0.10;0.10;;;;;;;22.12;49.50;101123.28;5066793;28;20045;-62
2021/09/09 11:20:00;;;;;;;0.08;0.00;;;;;;;21.98;49.29;101128.72;5057881;28;20024;-62
2021/09/09 11:22:26;;;;;;;0.50;0.10;;;;;;;22.27;48.68;101117.81;5066725;28;20033;-62